KHUF/HUF METAR and TAF weather

Enter ICAO airport designator
Station Type Date Time Source
KHUF METAR 2022/12/04 11:53 UTC NOAA

KHUF 041153Z 00000KT 10SM CLR M07/M09 A3036 RMK AO2 SLP290 T10671089 11033 21078 58007 $


Station Type Date Time Source
KHUF Decoded METAR 2022/12/04 11:53 UTC NOAA

TERRE HAUTE INTERNATIONAL -HULMAN FLD, IN, United States (KHUF) 39-27N 087-19W 179M
Dec 04, 2022 - 06:53 AM EST / 2022.12.04 1153 UTC
Wind: Calm:0
Visibility: 10 mile(s):0
Sky conditions: clear
Temperature: 19.9 F (-6.7 C)
Dew Point: 16.0 F (-8.9 C)
Relative Humidity: 84%
Pressure (altimeter): 30.36 in. Hg (1028 hPa)
Pressure tendency: 0.02 inches (0.7 hPa) lower than three hours ago
ob: KHUF 041153Z 00000KT 10SM CLR M07/M09 A3036 RMK AO2 SLP290 T10671089 11033 21078 58007
cycle: 12

Station Type Date Time Source
KHUF TAF 2022/12/04 12:22 UTC NOAA

TAF KHUF 041120Z 0412/0512 VRB04KT P6SM BKN200
FM041500 22007KT P6SM SCT250
FM050100 18004KT P6SM SCT200
FM050800 15003KT P6SM BKN150

Example: see airport list